createdAt,value
2023-02-03T00:00:44.084Z,1.10
2023-02-03T00:03:10.934Z,1.07
2023-02-03T00:05:38.224Z,1.03
2023-02-03T00:08:07.751Z,0.99
2023-02-03T00:10:39.236Z,1.06
2023-02-03T00:13:07.504Z,1.09
2023-02-03T00:15:34.416Z,1.08
2023-02-03T00:18:01.577Z,1.09
2023-02-03T00:20:28.997Z,1.11
2023-02-03T00:23:02.602Z,1.09
2023-02-03T00:25:29.569Z,1.18
2023-02-03T00:27:56.353Z,1.16
2023-02-03T00:30:23.195Z,1.16
2023-02-03T00:32:49.989Z,1.08
2023-02-03T00:35:16.739Z,1.12
2023-02-03T00:37:44.742Z,1.24
2023-02-03T00:40:12.305Z,1.31
2023-02-03T00:42:39.026Z,1.26
2023-02-03T00:45:06.271Z,1.11
2023-02-03T00:47:33.032Z,1.17
2023-02-03T00:50:00.225Z,1.23
2023-02-03T00:52:27.075Z,1.22
2023-02-03T00:54:53.838Z,1.24
2023-02-03T00:57:20.548Z,1.32
2023-02-03T00:59:47.440Z,1.24
2023-02-03T01:02:14.263Z,1.24
2023-02-03T01:04:40.984Z,1.19
2023-02-03T01:07:07.825Z,1.23
2023-02-03T01:09:35.859Z,1.17
2023-02-03T01:12:02.912Z,1.24
2023-02-03T01:14:30.193Z,1.23
2023-02-03T01:16:58.047Z,1.23
2023-02-03T01:19:29.012Z,1.35
2023-02-03T01:21:55.969Z,1.24
2023-02-03T01:24:23.310Z,1.26
2023-02-03T01:26:50.299Z,1.29
2023-02-03T01:29:17.016Z,1.32
2023-02-03T01:31:44.057Z,1.40
2023-02-03T01:34:18.663Z,1.37
2023-02-03T01:36:46.925Z,1.54
2023-02-03T01:39:14.447Z,1.58
2023-02-03T01:41:41.906Z,1.69
2023-02-03T01:44:53.870Z,1.57
2023-02-03T01:47:33.762Z,1.61
2023-02-03T01:50:23.076Z,1.66
2023-02-03T01:52:54.839Z,1.49
2023-02-03T01:55:28.283Z,1.37
2023-02-03T01:58:07.344Z,1.39
2023-02-03T02:00:34.111Z,1.29
2023-02-03T02:03:04.629Z,1.36
2023-02-03T02:05:33.971Z,1.32
2023-02-03T02:08:02.590Z,1.24
2023-02-03T02:10:31.098Z,1.27
2023-02-03T02:12:59.120Z,1.16
2023-02-03T02:15:54.967Z,1.17
2023-02-03T02:18:40.970Z,1.11
2023-02-03T02:21:07.921Z,1.08
2023-02-03T02:23:48.653Z,1.11
2023-02-03T02:26:52.787Z,1.06
2023-02-03T02:29:46.954Z,1.08
2023-02-03T02:32:22.441Z,0.85
2023-02-03T02:34:51.715Z,0.97
2023-02-03T02:37:55.910Z,1.01
2023-02-03T02:41:04.544Z,0.71
2023-02-03T02:43:41.901Z,0.69
2023-02-03T02:46:39.524Z,0.54
2023-02-03T02:49:15.441Z,0.54
2023-02-03T02:51:45.387Z,0.51
2023-02-03T02:54:19.555Z,0.63
2023-02-03T02:56:52.444Z,0.68
2023-02-03T02:59:19.389Z,0.66
2023-02-03T03:01:46.190Z,0.71
2023-02-03T03:04:16.893Z,0.68
2023-02-03T03:06:51.353Z,0.90
2023-02-03T03:09:36.156Z,0.92
2023-02-03T03:12:11.515Z,0.89
2023-02-03T03:14:41.812Z,1.04
2023-02-03T03:17:12.425Z,0.93
2023-02-03T03:19:44.145Z,0.98
2023-02-03T03:22:16.321Z,0.70
2023-02-03T03:24:52.968Z,0.74
2023-02-03T03:27:25.742Z,0.54
2023-02-03T03:29:55.550Z,0.57
2023-02-03T03:32:23.336Z,0.69
2023-02-03T03:34:51.569Z,0.87
2023-02-03T03:37:27.690Z,1.16
2023-02-03T03:39:58.194Z,1.33
2023-02-03T03:42:53.081Z,0.82
2023-02-03T03:45:27.572Z,0.66
2023-02-03T03:47:57.584Z,0.51
2023-02-03T03:50:31.203Z,0.11
2023-02-03T03:53:01.969Z,0.05
2023-02-03T03:55:33.118Z,0.14
2023-02-03T03:58:08.225Z,-0.06
2023-02-03T04:00:38.675Z,-0.04
2023-02-03T04:03:11.804Z,0.01
2023-02-03T04:05:40.971Z,0.17
2023-02-03T04:08:08.198Z,0.44
2023-02-03T04:10:39.188Z,0.62
2023-02-03T04:13:07.729Z,0.80
2023-02-03T04:15:35.149Z,0.76
2023-02-03T04:18:02.460Z,0.99
2023-02-03T04:20:31.676Z,1.04
2023-02-03T04:22:59.410Z,1.11
2023-02-03T04:25:26.714Z,1.37
2023-02-03T04:27:54.033Z,1.45
2023-02-03T04:30:20.951Z,1.12
2023-02-03T04:32:48.107Z,1.43
2023-02-03T04:35:15.266Z,1.32
2023-02-03T04:37:42.419Z,1.22
2023-02-03T04:40:10.414Z,0.52
2023-02-03T04:42:39.018Z,-0.23
2023-02-03T04:45:08.102Z,-0.57
2023-02-03T04:47:35.165Z,-0.56
2023-02-03T04:50:03.440Z,-0.68
2023-02-03T04:52:30.308Z,-0.71
2023-02-03T04:54:57.140Z,-0.90
2023-02-03T04:57:24.251Z,-0.77
2023-02-03T04:59:55.902Z,-0.73
2023-02-03T05:02:22.916Z,-0.80
2023-02-03T05:04:50.742Z,-1.05
2023-02-03T05:07:17.533Z,-0.94
2023-02-03T05:09:45.355Z,-0.75
2023-02-03T05:12:12.414Z,-0.48
2023-02-03T05:14:39.963Z,-0.80
2023-02-03T05:17:09.877Z,-0.82
2023-02-03T05:19:36.660Z,-0.80
2023-02-03T05:22:03.496Z,-0.41
2023-02-03T05:24:31.176Z,-0.03
2023-02-03T05:26:58.956Z,0.26
2023-02-03T05:29:25.834Z,0.34
2023-02-03T05:31:53.552Z,0.27
2023-02-03T05:34:21.168Z,0.01
2023-02-03T05:36:49.295Z,0.17
2023-02-03T05:39:16.444Z,0.28
2023-02-03T05:41:58.289Z,0.39
2023-02-03T05:44:28.981Z,0.30
2023-02-03T05:46:58.369Z,0.25
2023-02-03T05:49:25.956Z,0.26
2023-02-03T05:51:55.749Z,-0.12
2023-02-03T05:54:23.085Z,-0.27
2023-02-03T05:56:51.134Z,-0.10
2023-02-03T05:59:18.427Z,-0.01
2023-02-03T06:01:45.351Z,-0.61
2023-02-03T06:04:13.165Z,-0.83
2023-02-03T06:06:40.810Z,-0.80
2023-02-03T06:09:09.737Z,-0.83
2023-02-03T06:11:37.570Z,-0.64
2023-02-03T06:14:04.893Z,-0.40
2023-02-03T06:16:32.317Z,-0.19
2023-02-03T06:19:00.845Z,-0.10
2023-02-03T06:21:28.624Z,0.21
2023-02-03T06:23:56.662Z,0.28
2023-02-03T06:26:26.450Z,0.35
2023-02-03T06:28:54.473Z,-0.01
2023-02-03T06:31:23.451Z,-0.27
2023-02-03T06:33:53.352Z,-0.19
2023-02-03T06:36:20.274Z,-0.33
2023-02-03T06:38:47.342Z,-0.53
2023-02-03T06:41:14.344Z,-0.62
2023-02-03T06:43:41.438Z,-0.74
2023-02-03T06:46:10.757Z,-0.73
2023-02-03T06:48:37.995Z,-0.76
2023-02-03T06:51:07.584Z,-0.70
2023-02-03T06:53:34.653Z,-0.74
2023-02-03T06:56:02.380Z,-0.53
2023-02-03T06:58:30.010Z,-0.69
2023-02-03T07:00:57.208Z,-0.47
2023-02-03T07:03:24.937Z,-0.11
2023-02-03T07:05:51.995Z,-0.06
2023-02-03T07:08:19.081Z,-0.18
2023-02-03T07:10:46.877Z,0.08
2023-02-03T07:13:13.777Z,0.13
2023-02-03T07:15:42.736Z,-0.02
2023-02-03T07:18:09.835Z,-0.04
2023-02-03T07:20:38.722Z,0.16
2023-02-03T07:23:06.859Z,-0.05
2023-02-03T07:25:33.766Z,0.09
2023-02-03T07:28:04.218Z,-0.04
2023-02-03T07:30:33.912Z,-0.04
2023-02-03T07:33:01.961Z,0.09
2023-02-03T07:35:29.861Z,0.18
2023-02-03T07:37:56.703Z,0.17
2023-02-03T07:40:24.620Z,0.26
2023-02-03T07:42:52.776Z,0.46
2023-02-03T07:45:22.272Z,0.37
2023-02-03T07:47:50.050Z,0.60
2023-02-03T07:50:18.259Z,0.60
2023-02-03T07:52:45.272Z,0.76
2023-02-03T07:55:12.437Z,0.76
2023-02-03T07:57:43.611Z,0.55
2023-02-03T08:00:14.196Z,0.65
2023-02-03T08:02:44.477Z,0.73
2023-02-03T08:05:13.688Z,0.68
2023-02-03T08:07:42.603Z,0.57
2023-02-03T08:10:12.322Z,0.79
2023-02-03T08:12:40.226Z,1.02
2023-02-03T08:15:07.593Z,0.93
2023-02-03T08:17:35.507Z,0.95
2023-02-03T08:20:03.624Z,1.02
2023-02-03T08:22:33.312Z,1.30
2023-02-03T08:25:01.072Z,1.55
2023-02-03T08:27:28.101Z,1.59
2023-02-03T08:29:55.874Z,1.74
2023-02-03T08:32:23.269Z,1.90
2023-02-03T08:34:52.232Z,1.98
2023-02-03T08:37:24.427Z,2.15
2023-02-03T08:39:52.759Z,2.21
2023-02-03T08:42:21.057Z,2.13
2023-02-03T08:44:49.504Z,2.33
2023-02-03T08:47:17.451Z,2.62
2023-02-03T08:49:45.589Z,2.36
2023-02-03T08:52:14.165Z,2.25
2023-02-03T08:54:44.011Z,2.12
2023-02-03T08:57:11.232Z,2.01
2023-02-03T08:59:42.257Z,1.75
2023-02-03T09:02:14.666Z,1.80
2023-02-03T09:04:41.645Z,1.64
2023-02-03T09:07:08.692Z,1.59
2023-02-03T09:09:37.577Z,1.86
2023-02-03T09:12:07.038Z,1.80
2023-02-03T09:14:35.380Z,1.98
2023-02-03T09:17:03.556Z,2.04
2023-02-03T09:19:31.316Z,2.10
2023-02-03T09:22:01.237Z,1.84
2023-02-03T09:24:28.458Z,1.90
2023-02-03T09:26:56.358Z,1.90
2023-02-03T09:29:23.460Z,1.97
2023-02-03T09:31:54.194Z,2.07
2023-02-03T09:34:22.131Z,2.19
2023-02-03T09:36:49.316Z,2.28
2023-02-03T09:39:16.343Z,2.25
2023-02-03T09:41:45.261Z,2.14
2023-02-03T09:44:30.931Z,2.27
2023-02-03T09:47:02.779Z,2.58
2023-02-03T09:49:41.469Z,2.72
2023-02-03T09:52:15.854Z,2.89
2023-02-03T09:55:00.932Z,2.97
2023-02-03T09:57:34.547Z,2.97
2023-02-03T10:00:09.588Z,2.78
2023-02-03T10:02:48.998Z,2.86
2023-02-03T10:05:48.628Z,2.93
2023-02-03T10:08:41.547Z,2.86
2023-02-03T10:11:40.802Z,2.96
2023-02-03T10:14:10.621Z,2.68
2023-02-03T10:16:40.598Z,2.72
2023-02-03T10:19:20.812Z,2.59
2023-02-03T10:21:52.610Z,2.51
2023-02-03T10:24:25.638Z,2.61
2023-02-03T10:26:54.845Z,2.62
2023-02-03T10:29:39.772Z,2.46
2023-02-03T10:32:14.005Z,2.46
2023-02-03T10:34:47.447Z,2.23
2023-02-03T10:37:29.104Z,2.67
2023-02-03T10:40:01.228Z,2.71
2023-02-03T10:42:50.242Z,2.62
2023-02-03T10:45:18.809Z,2.70
2023-02-03T10:47:51.813Z,2.64
2023-02-03T10:50:24.814Z,3.08
2023-02-03T10:52:51.584Z,3.31
2023-02-03T10:55:25.324Z,2.71
2023-02-03T10:57:56.248Z,2.58
2023-02-03T11:00:30.079Z,2.46
2023-02-03T11:03:04.617Z,2.41
2023-02-03T11:05:31.651Z,2.56
2023-02-03T11:07:58.586Z,2.67
2023-02-03T11:10:40.178Z,2.77
2023-02-03T11:13:24.480Z,2.71
2023-02-03T11:16:01.528Z,2.74
2023-02-03T11:18:52.691Z,2.62
2023-02-03T11:21:40.389Z,2.91
2023-02-03T11:24:22.227Z,2.94
2023-02-03T11:26:55.958Z,2.78
2023-02-03T11:29:27.011Z,2.73
2023-02-03T11:31:56.132Z,2.72
2023-02-03T11:34:33.330Z,2.82
2023-02-03T11:37:32.492Z,2.65
2023-02-03T11:40:08.285Z,2.70
2023-02-03T11:42:37.834Z,2.74
2023-02-03T11:45:27.135Z,2.58
2023-02-03T11:48:19.608Z,2.92
2023-02-03T11:51:04.834Z,3.23
2023-02-03T11:53:47.867Z,3.16
2023-02-03T11:56:45.086Z,3.04
2023-02-03T11:59:24.067Z,3.34
2023-02-03T12:02:12.144Z,3.42
2023-02-03T12:05:01.138Z,3.13
2023-02-03T12:07:55.071Z,3.18
2023-02-03T12:10:46.296Z,3.29
2023-02-03T12:13:43.730Z,3.25
2023-02-03T12:16:27.811Z,3.69
2023-02-03T12:19:03.960Z,3.78
2023-02-03T12:22:12.899Z,3.82
2023-02-03T12:24:45.843Z,3.74
2023-02-03T12:27:18.809Z,3.63
2023-02-03T12:29:52.816Z,3.91
2023-02-03T12:32:35.019Z,4.32
2023-02-03T12:35:06.354Z,4.33
2023-02-03T12:38:06.999Z,4.20
2023-02-03T12:40:42.716Z,4.51
2023-02-03T12:43:18.389Z,4.78
2023-02-03T12:46:15.836Z,4.57
2023-02-03T12:48:55.569Z,5.01
2023-02-03T12:51:35.626Z,5.06
2023-02-03T12:54:13.953Z,4.98
2023-02-03T12:56:49.034Z,5.08
2023-02-03T12:59:22.377Z,4.93
2023-02-03T13:02:01.666Z,4.98
2023-02-03T13:04:41.712Z,5.32
2023-02-03T13:07:17.551Z,5.03
2023-02-03T13:09:57.279Z,5.18
2023-02-03T13:12:47.660Z,5.17
2023-02-03T13:15:36.968Z,5.08
2023-02-03T13:18:12.792Z,4.84
2023-02-03T13:20:40.881Z,4.30
2023-02-03T13:23:13.504Z,3.87
2023-02-03T13:25:51.146Z,3.97
2023-02-03T13:28:40.217Z,3.75
2023-02-03T13:31:15.581Z,3.92
2023-02-03T13:33:47.176Z,3.85
2023-02-03T13:36:51.276Z,3.85
2023-02-03T13:39:21.162Z,3.77
2023-02-03T13:42:11.636Z,3.65
2023-02-03T13:44:40.602Z,3.65
2023-02-03T13:47:16.902Z,3.69
2023-02-03T13:49:49.391Z,3.89
2023-02-03T13:52:31.177Z,3.91
2023-02-03T13:54:59.099Z,3.78
2023-02-03T13:57:38.592Z,3.70
2023-02-03T14:00:45.773Z,3.66
2023-02-03T14:03:25.675Z,3.59
2023-02-03T14:05:58.648Z,3.52
2023-02-03T14:08:26.324Z,3.58
2023-02-03T14:11:30.825Z,3.75
2023-02-03T14:14:10.527Z,3.75
2023-02-03T14:16:39.321Z,3.76
2023-02-03T14:19:33.157Z,3.55
2023-02-03T14:22:17.538Z,3.63
2023-02-03T14:24:47.987Z,3.55
2023-02-03T14:27:23.619Z,3.52
2023-02-03T14:30:16.985Z,3.62
2023-02-03T14:32:54.200Z,3.72
2023-02-03T14:35:31.415Z,3.78
2023-02-03T14:38:02.756Z,3.98
2023-02-03T14:40:42.803Z,3.87
2023-02-03T14:43:19.657Z,4.06
2023-02-03T14:46:10.900Z,4.04
2023-02-03T14:48:45.657Z,4.13
2023-02-03T14:51:47.369Z,4.42
2023-02-03T14:54:39.991Z,4.45
2023-02-03T14:57:44.165Z,4.20
2023-02-03T15:00:26.451Z,4.10
2023-02-03T15:03:12.435Z,4.12
2023-02-03T15:05:48.593Z,4.18
2023-02-03T15:08:42.251Z,4.10
2023-02-03T15:11:32.739Z,4.08
2023-02-03T15:14:21.404Z,4.12
2023-02-03T15:16:58.150Z,4.12
2023-02-03T15:19:36.255Z,4.33
2023-02-03T15:22:25.547Z,4.33
2023-02-03T15:24:56.631Z,4.30
2023-02-03T15:27:28.908Z,4.32
2023-02-03T15:29:59.765Z,4.34
2023-02-03T15:32:36.373Z,4.46
2023-02-03T15:35:10.019Z,4.55
2023-02-03T15:37:54.944Z,4.77
2023-02-03T15:40:26.504Z,4.57
2023-02-03T15:43:17.050Z,4.39
2023-02-03T15:46:09.044Z,4.23
2023-02-03T15:49:16.509Z,4.33
2023-02-03T15:51:54.694Z,4.37
2023-02-03T15:54:31.765Z,4.51
2023-02-03T15:57:05.626Z,4.46
2023-02-03T15:59:50.476Z,4.18
2023-02-03T16:02:32.103Z,4.06
2023-02-03T16:05:06.560Z,3.99
2023-02-03T16:07:33.446Z,4.00
2023-02-03T16:10:01.387Z,4.04
2023-02-03T16:12:39.583Z,4.05
2023-02-03T16:15:23.730Z,4.29
2023-02-03T16:17:58.100Z,4.37
2023-02-03T16:20:32.470Z,4.51
2023-02-03T16:23:17.564Z,4.53
2023-02-03T16:26:13.591Z,4.45
2023-02-03T16:29:00.173Z,4.53
2023-02-03T16:31:46.937Z,4.50
2023-02-03T16:34:35.740Z,4.65
2023-02-03T16:37:31.375Z,4.42
2023-02-03T16:40:17.564Z,4.32
2023-02-03T16:43:04.350Z,4.09
2023-02-03T16:45:51.609Z,4.20
2023-02-03T16:48:37.093Z,4.16
2023-02-03T16:51:11.422Z,4.11
2023-02-03T16:53:41.199Z,4.16
2023-02-03T16:56:09.261Z,4.14
2023-02-03T16:58:37.642Z,4.12
2023-02-03T17:01:07.740Z,4.16
2023-02-03T17:03:37.252Z,4.23
2023-02-03T17:06:09.967Z,4.25
2023-02-03T17:08:39.007Z,4.32
2023-02-03T17:11:11.396Z,4.23
2023-02-03T17:13:38.549Z,4.28
2023-02-03T17:16:12.224Z,4.24
2023-02-03T17:18:41.009Z,4.18
2023-02-03T17:21:10.931Z,4.18
2023-02-03T17:23:38.641Z,4.17
2023-02-03T17:26:06.628Z,4.13
2023-02-03T17:28:34.653Z,4.06
2023-02-03T17:31:05.385Z,4.02
2023-02-03T17:33:35.454Z,4.01
2023-02-03T17:36:08.310Z,3.99
2023-02-03T17:55:23.377Z,3.78
2023-02-03T17:57:51.341Z,3.78
2023-02-03T18:00:19.935Z,3.76
2023-02-03T18:02:51.968Z,3.75
2023-02-03T18:05:19.909Z,3.80
2023-02-03T18:10:16.298Z,3.82
2023-02-03T18:12:44.646Z,3.76
2023-02-03T18:15:12.299Z,3.85
2023-02-03T18:17:40.047Z,3.77
2023-02-03T18:20:08.434Z,3.76
2023-02-03T18:22:36.305Z,3.72
2023-02-03T18:25:03.339Z,3.72
2023-02-03T18:27:30.360Z,3.62
2023-02-03T18:29:59.900Z,3.68
2023-02-03T18:32:27.825Z,3.73
2023-02-03T18:34:55.973Z,3.85
2023-02-03T18:37:23.730Z,3.93
2023-02-03T18:39:51.492Z,3.84
2023-02-03T18:42:19.366Z,3.83
2023-02-03T18:44:47.136Z,3.85
2023-02-03T18:47:16.770Z,3.81
2023-02-03T18:49:44.797Z,3.87
2023-02-03T18:52:12.719Z,3.92
2023-02-03T18:54:41.021Z,3.93
2023-02-03T18:57:12.996Z,3.96
2023-02-03T18:59:40.896Z,3.99
2023-02-03T19:02:10.761Z,3.81
2023-02-03T19:04:38.998Z,3.76
2023-02-03T19:07:06.118Z,3.73
2023-02-03T19:09:34.451Z,3.69
2023-02-03T19:12:03.765Z,3.75
2023-02-03T19:14:32.862Z,3.75
2023-02-03T19:17:03.823Z,3.88
2023-02-03T19:19:31.859Z,3.87
2023-02-03T19:21:59.908Z,3.93
2023-02-03T19:24:27.984Z,3.93
2023-02-03T19:26:55.041Z,4.09
2023-02-03T19:29:21.917Z,4.09
2023-02-03T19:31:49.815Z,4.00
2023-02-03T19:34:18.749Z,4.04
2023-02-03T19:36:49.220Z,3.99
2023-02-03T19:39:19.065Z,4.07
2023-02-03T19:41:48.403Z,3.99
2023-02-03T19:44:16.323Z,3.96
2023-02-03T19:46:46.069Z,4.09
2023-02-03T19:49:17.592Z,4.12
2023-02-03T19:51:45.984Z,4.05
2023-02-03T19:54:16.896Z,3.98
2023-02-03T19:56:45.114Z,4.00
2023-02-03T19:59:13.058Z,3.93
2023-02-03T20:01:40.750Z,4.02
2023-02-03T20:04:08.721Z,4.04
2023-02-03T20:06:36.540Z,4.08
2023-02-03T20:09:06.287Z,4.19
2023-02-03T20:11:34.463Z,4.02
2023-02-03T20:14:02.521Z,3.99
2023-02-03T20:16:33.901Z,3.86
2023-02-03T20:19:02.868Z,3.91
2023-02-03T20:21:30.760Z,3.91
2023-02-03T20:23:57.739Z,4.02
2023-02-03T20:26:25.952Z,4.05
2023-02-03T20:28:53.183Z,4.06
2023-02-03T20:31:22.317Z,4.02
2023-02-03T20:33:49.261Z,4.09
2023-02-03T20:36:19.536Z,4.06
2023-02-03T20:38:48.143Z,4.09
2023-02-03T20:41:19.306Z,4.06
2023-02-03T20:43:47.662Z,4.17
2023-02-03T20:46:18.787Z,4.24
2023-02-03T20:48:46.313Z,4.10
2023-02-03T20:51:16.384Z,4.20
2023-02-03T20:53:46.090Z,4.18
2023-02-03T20:56:18.309Z,4.14
2023-02-03T20:58:45.681Z,4.19
2023-02-03T21:01:19.795Z,4.20
2023-02-03T21:04:08.147Z,4.02
2023-02-03T21:06:36.793Z,3.99
2023-02-03T21:09:24.464Z,4.07
2023-02-03T21:11:52.654Z,4.28
2023-02-03T21:14:23.604Z,4.53
2023-02-03T21:16:56.437Z,4.66
2023-02-03T21:19:29.168Z,4.70
2023-02-03T21:21:57.104Z,4.75
2023-02-03T21:24:29.107Z,4.65
2023-02-03T21:26:57.405Z,4.58
2023-02-03T21:29:36.853Z,4.59
2023-02-03T21:32:04.589Z,4.49
2023-02-03T21:34:35.694Z,4.47
2023-02-03T21:37:27.815Z,4.51
2023-02-03T21:39:55.563Z,4.61
2023-02-03T21:42:43.855Z,4.84
2023-02-03T21:45:17.643Z,4.99
2023-02-03T21:47:46.886Z,5.02
2023-02-03T21:50:33.950Z,5.07
2023-02-03T21:53:12.829Z,5.08
2023-02-03T21:55:41.766Z,5.02
2023-02-03T21:58:25.563Z,4.96
2023-02-03T22:00:54.137Z,4.89
2023-02-03T22:03:31.316Z,4.91
2023-02-03T22:06:13.634Z,4.87
2023-02-03T22:08:53.016Z,4.86
2023-02-03T22:11:21.433Z,4.80
2023-02-03T22:13:48.795Z,4.80
2023-02-03T22:16:20.122Z,4.80
2023-02-03T22:18:48.099Z,4.81
2023-02-03T22:21:16.100Z,4.78
2023-02-03T22:23:42.984Z,4.75
2023-02-03T22:26:11.064Z,4.75
2023-02-03T22:28:38.784Z,4.65
2023-02-03T22:31:07.698Z,4.71
2023-02-03T22:33:36.351Z,4.81
2023-02-03T22:36:06.634Z,4.75
2023-02-03T22:38:35.028Z,4.68
2023-02-03T22:41:02.452Z,4.67
2023-02-03T22:43:31.233Z,4.72
2023-02-03T22:45:58.812Z,4.61
2023-02-03T22:48:25.731Z,4.61
2023-02-03T22:50:52.481Z,4.67
2023-02-03T22:53:19.637Z,4.70
2023-02-03T22:55:46.647Z,4.68
2023-02-03T22:58:13.696Z,4.63
2023-02-03T23:00:40.595Z,4.54
2023-02-03T23:03:07.539Z,4.62
2023-02-03T23:05:34.623Z,4.57
2023-02-03T23:08:01.681Z,4.58
2023-02-03T23:10:32.742Z,4.60
2023-02-03T23:13:00.941Z,4.58
2023-02-03T23:15:28.507Z,4.54
2023-02-03T23:17:55.637Z,4.62
2023-02-03T23:20:23.694Z,4.46
2023-02-03T23:22:50.592Z,4.39
2023-02-03T23:25:17.669Z,4.34
2023-02-03T23:27:44.562Z,4.27
2023-02-03T23:30:12.081Z,4.23
2023-02-03T23:32:38.816Z,4.30
2023-02-03T23:35:25.185Z,4.30
2023-02-03T23:37:52.002Z,4.27
2023-02-03T23:40:19.167Z,4.30
2023-02-03T23:42:46.162Z,4.29
2023-02-03T23:45:13.023Z,4.25
2023-02-03T23:47:44.872Z,4.23
2023-02-03T23:50:14.762Z,4.31
2023-02-03T23:52:41.990Z,4.29
2023-02-03T23:55:12.448Z,4.19
2023-02-03T23:57:45.301Z,4.25
